Time;durP1;ratioP1;P1;durP2;ratioP2;P2;SDS_P1;SDS_P2;PMS_P1;PMS_P2;Temp;Humidity;BMP_temperature;BMP_pressure;BME280_temperature;BME280_humidity;BME280_pressure;Samples;Min_cycle;Max_cycle;Signal;HPM_P1;HPM_P2
2023/02/08 00:00:09;;;;;;;11.88;4.97;;;-3275.70;77.70;;;;;;5086113;28;20819;-62
2023/02/08 00:02:37;;;;;;;9.48;4.88;;;-3275.70;77.50;;;;;;5082556;28;20062;-62
2023/02/08 00:05:06;;;;;;;10.40;5.70;;;-3275.70;77.60;;;;;;5086054;28;20070;-61
2023/02/08 00:07:32;;;;;;;10.18;5.10;;;-3275.70;77.60;;;;;;5083868;28;20051;-62
2023/02/08 00:09:59;;;;;;;9.82;4.80;;;-3275.70;77.50;;;;;;5087259;28;20056;-62
2023/02/08 00:12:27;;;;;;;10.25;4.85;;;-3275.70;77.30;;;;;;5087261;28;20067;-70
2023/02/08 00:14:53;;;;;;;11.27;5.38;;;-3275.60;77.30;;;;;;5088186;28;20109;-69
2023/02/08 00:17:26;;;;;;;12.52;5.75;;;-3275.60;77.50;;;;;;5082269;28;20051;-69
2023/02/08 00:19:53;;;;;;;10.63;4.90;;;-3275.60;77.50;;;;;;5063992;28;20407;-69
2023/02/08 00:22:22;;;;;;;9.80;4.90;;;-3275.60;77.70;;;;;;5088247;28;20052;-62
2023/02/08 00:24:50;;;;;;;11.18;5.60;;;-3275.60;77.70;;;;;;5086777;28;20908;-61
2023/02/08 00:27:17;;;;;;;12.70;4.85;;;-3275.60;77.90;;;;;;5087307;28;20086;-65
2023/02/08 00:29:44;;;;;;;9.18;4.63;;;-3275.50;78.10;;;;;;5089386;28;20044;-65
2023/02/08 00:32:12;;;;;;;9.95;5.10;;;-3275.50;78.10;;;;;;5064845;28;20040;-69
2023/02/08 00:34:39;;;;;;;10.15;4.88;;;-3275.60;77.90;;;;;;5085001;28;20047;-68
2023/02/08 00:37:06;;;;;;;12.05;5.07;;;-3275.60;78.00;;;;;;5088347;28;20072;-71
2023/02/08 00:39:34;;;;;;;9.15;4.72;;;-3275.60;78.00;;;;;;5089761;28;20047;-71
2023/02/08 00:42:01;;;;;;;8.75;4.53;;;-3275.50;78.10;;;;;;5088490;28;20094;-62
2023/02/08 00:44:28;;;;;;;11.05;5.13;;;-3275.50;78.10;;;;;;5071172;28;20044;-62
2023/02/08 00:46:55;;;;;;;10.60;5.50;;;-3275.50;78.20;;;;;;5064071;28;20513;-69
2023/02/08 00:49:22;;;;;;;9.48;4.97;;;-3275.40;78.20;;;;;;5087532;28;20411;-69
2023/02/08 00:51:49;;;;;;;11.48;5.70;;;-3275.50;78.20;;;;;;5088981;28;20419;-72
2023/02/08 00:54:17;;;;;;;13.10;5.75;;;-3275.50;78.10;;;;;;5085596;28;20150;-71
2023/02/08 00:56:45;;;;;;;12.35;5.90;;;-3275.40;78.00;;;;;;5086708;28;20063;-71
2023/02/08 00:59:13;;;;;;;11.23;5.70;;;-3275.40;78.10;;;;;;5063405;28;20051;-72
2023/02/08 01:01:41;;;;;;;13.45;5.70;;;-3275.30;78.20;;;;;;5083420;28;20048;-67
2023/02/08 01:04:08;;;;;;;13.85;6.15;;;-3275.40;78.10;;;;;;5085637;28;20052;-69
2023/02/08 01:06:35;;;;;;;11.25;4.97;;;-3275.40;77.90;;;;;;5085139;28;20051;-69
2023/02/08 01:09:02;;;;;;;9.82;4.80;;;-3275.30;77.80;;;;;;5081468;28;20047;-69
2023/02/08 01:11:28;;;;;;;12.30;5.47;;;-3275.30;78.20;;;;;;5085374;28;20048;-71
2023/02/08 01:14:01;;;;;;;11.27;5.38;;;-3275.30;78.30;;;;;;5064682;28;20421;-71
2023/02/08 01:16:30;;;;;;;10.65;4.95;;;-3275.30;78.30;;;;;;5085408;28;20048;-72
2023/02/08 01:18:58;;;;;;;10.40;5.10;;;-3275.40;78.30;;;;;;5084402;28;20051;-72
2023/02/08 01:21:27;;;;;;;8.48;4.47;;;-3275.30;78.40;;;;;;5085953;28;20051;-72
2023/02/08 01:23:56;;;;;;;11.87;5.37;;;-3275.30;78.50;;;;;;5066852;28;20071;-72
2023/02/08 01:26:24;;;;;;;10.20;4.75;;;-3275.30;78.50;;;;;;5083419;28;20039;-62
2023/02/08 01:28:52;;;;;;;10.52;5.35;;;-3275.30;78.40;;;;;;5084866;28;20070;-60
2023/02/08 01:31:22;;;;;;;9.27;5.03;;;-3275.30;78.30;;;;;;5083983;28;20044;-62
2023/02/08 01:33:50;;;;;;;11.70;4.43;;;-3275.20;78.20;;;;;;5085800;28;20414;-61
2023/02/08 01:36:17;;;;;;;8.52;4.30;;;-3275.20;78.30;;;;;;5061205;28;20044;-66
2023/02/08 01:38:44;;;;;;;11.88;4.68;;;-3275.20;78.20;;;;;;5084776;28;20051;-65
2023/02/08 01:41:16;;;;;;;11.90;5.33;;;-3275.20;78.40;;;;;;5080052;28;20040;-62
2023/02/08 01:44:02;;;;;;;9.75;5.10;;;-3275.20;78.50;;;;;;5086713;28;20044;-62
2023/02/08 01:46:34;;;;;;;11.88;5.20;;;-3275.10;78.60;;;;;;5085292;28;20135;-62
2023/02/08 01:49:04;;;;;;;9.35;4.72;;;-3275.10;78.80;;;;;;5068907;28;20056;-62
2023/02/08 01:51:34;;;;;;;10.07;4.90;;;-3275.10;78.70;;;;;;5084843;28;20060;-62
2023/02/08 01:54:05;;;;;;;11.88;5.25;;;-3275.20;78.50;;;;;;5084594;28;20067;-61
2023/02/08 01:56:35;;;;;;;11.05;5.03;;;-3275.20;78.30;;;;;;5082446;28;20525;-66
2023/02/08 01:59:06;;;;;;;14.48;5.30;;;-3275.20;78.20;;;;;;5061464;28;20052;-66
2023/02/08 02:01:34;;;;;;;;;;;-3275.20;78.20;;;;;;5057386;28;20051;-70
2023/02/08 02:04:03;;;;;;;11.75;5.65;;;-3275.10;78.10;;;;;;5086552;28;19936;-70
2023/02/08 02:06:34;;;;;;;9.50;5.32;;;-3275.10;78.30;;;;;;5081018;28;20483;-62
2023/02/08 02:09:10;;;;;;;12.23;5.50;;;-3275.10;78.40;;;;;;5066173;28;20048;-61
2023/02/08 02:11:38;;;;;;;9.88;5.25;;;-3275.10;78.40;;;;;;5083571;28;20055;-62
2023/02/08 02:14:06;;;;;;;9.38;4.57;;;-3275.10;78.60;;;;;;5063034;28;20063;-62
2023/02/08 02:16:34;;;;;;;8.68;4.18;;;-3275.10;78.60;;;;;;5083599;28;20397;-60
2023/02/08 02:19:01;;;;;;;13.23;5.20;;;-3275.10;78.70;;;;;;5066137;28;20055;-62
2023/02/08 02:21:49;;;;;;;9.57;4.93;;;-3275.10;78.60;;;;;;5083922;28;20494;-61
2023/02/08 02:25:01;;;;;;;9.88;4.82;;;-3275.10;78.70;;;;;;5067879;28;20453;-61
2023/02/08 02:28:15;;;;;;;9.82;4.80;;;-3275.00;78.80;;;;;;5000350;28;20397;-62
2023/02/08 02:31:11;;;;;;;11.10;4.60;;;-3275.10;78.90;;;;;;4921046;29;20055;-65
2023/02/08 02:33:49;;;;;;;9.63;4.38;;;-3275.00;78.80;;;;;;5004484;28;20053;-65
2023/02/08 02:36:23;;;;;;;10.10;4.85;;;-3275.00;78.70;;;;;;5066864;28;20105;-66
2023/02/08 02:39:05;;;;;;;14.32;5.80;;;-3275.00;78.70;;;;;;5085310;28;20060;-64
2023/02/08 02:44:33;;;;;;;11.23;4.65;;;-3274.90;79.00;;;;;;5083650;28;20079;-72
2023/02/08 02:47:08;;;;;;;10.40;5.07;;;-3275.00;79.00;;;;;;5085048;28;20052;-67
2023/02/08 02:49:45;;;;;;;9.93;5.03;;;-3275.00;78.90;;;;;;5083227;28;20043;-67
2023/02/08 02:52:17;;;;;;;9.98;5.10;;;-3274.90;78.80;;;;;;5085303;28;20047;-72
2023/02/08 02:54:49;;;;;;;11.27;5.88;;;-3275.00;78.90;;;;;;5085523;28;20048;-73
2023/02/08 02:57:20;;;;;;;12.85;5.38;;;-3274.90;79.10;;;;;;5085178;28;20116;-65
2023/02/08 02:59:47;;;;;;;11.68;6.35;;;-3274.80;79.30;;;;;;5085456;28;20607;-66
2023/02/08 03:02:14;;;;;;;11.55;5.35;;;-3274.90;79.20;;;;;;5085038;28;20456;-66
2023/02/08 03:04:53;;;;;;;15.32;6.82;;;-3274.80;79.50;;;;;;5084326;28;20394;-65
2023/02/08 03:07:35;;;;;;;13.05;5.32;;;-3274.80;79.50;;;;;;5080136;28;20123;-69
2023/02/08 03:10:14;;;;;;;11.13;5.30;;;-3274.80;79.40;;;;;;5083934;28;20044;-69
2023/02/08 03:12:54;;;;;;;13.32;5.15;;;-3274.80;79.50;;;;;;5086136;28;20056;-69
2023/02/08 03:15:34;;;;;;;13.10;5.70;;;-3274.80;79.50;;;;;;5086249;28;20083;-60
2023/02/08 03:18:10;;;;;;;12.68;5.55;;;-3274.80;79.50;;;;;;5088324;28;20054;-62
2023/02/08 03:20:42;;;;;;;11.48;5.38;;;-3274.80;79.30;;;;;;5089797;28;20487;-70
2023/02/08 03:23:17;;;;;;;11.43;4.85;;;-3274.80;79.40;;;;;;5088801;28;20052;-71
2023/02/08 03:25:50;;;;;;;10.05;5.45;;;-3274.80;79.20;;;;;;5086717;28;20440;-71
2023/02/08 03:28:23;;;;;;;9.32;5.40;;;-3274.90;79.20;;;;;;5069162;28;20498;-73
2023/02/08 03:30:58;;;;;;;10.20;4.90;;;-3274.80;79.20;;;;;;5088199;28;20346;-73
2023/02/08 03:33:33;;;;;;;11.60;5.03;;;-3274.80;79.20;;;;;;5088490;28;20040;-73
2023/02/08 03:36:04;;;;;;;12.13;5.57;;;-3274.80;79.40;;;;;;5082937;28;20051;-68
2023/02/08 03:38:35;;;;;;;10.38;5.03;;;-3274.80;79.50;;;;;;5084929;28;20051;-65
2023/02/08 03:41:04;;;;;;;10.23;4.82;;;-3274.80;79.30;;;;;;5086466;28;20043;-65
2023/02/08 03:43:37;;;;;;;11.27;4.68;;;-3274.80;79.40;;;;;;5085547;28;20052;-65
2023/02/08 03:46:10;;;;;;;10.02;4.53;;;-3274.70;79.60;;;;;;5084821;28;20410;-65
2023/02/08 03:48:41;;;;;;;9.45;4.32;;;-3274.70;79.60;;;;;;5089684;28;20677;-65
2023/02/08 03:51:10;;;;;;;10.73;4.80;;;-3274.70;79.40;;;;;;5088122;28;20100;-66
2023/02/08 03:53:39;;;;;;;11.52;5.07;;;-3274.70;79.40;;;;;;5086048;28;20064;-65
2023/02/08 03:56:14;;;;;;;10.55;4.47;;;-3274.70;79.50;;;;;;5089093;28;20055;-61
2023/02/08 03:58:45;;;;;;;10.63;4.28;;;-3274.70;79.40;;;;;;5087947;28;20060;-60
2023/02/08 04:01:16;;;;;;;10.75;5.00;;;-3274.70;79.50;;;;;;5082148;28;20044;-65
2023/02/08 04:03:47;;;;;;;10.77;4.70;;;-3274.70;79.50;;;;;;5087794;28;20133;-65
2023/02/08 04:06:16;;;;;;;12.57;4.45;;;-3274.70;79.20;;;;;;5086200;28;20051;-73
2023/02/08 04:08:42;;;;;;;9.43;4.18;;;-3274.70;79.20;;;;;;5088351;28;20490;-71
2023/02/08 04:11:09;;;;;;;9.18;4.28;;;-3274.60;79.30;;;;;;5086153;28;20662;-67
2023/02/08 04:13:36;;;;;;;9.15;4.82;;;-3274.70;79.40;;;;;;5087751;28;20093;-69
2023/02/08 04:16:03;;;;;;;10.40;5.20;;;-3274.70;79.20;;;;;;5088629;28;20075;-61
2023/02/08 04:18:30;;;;;;;13.30;5.28;;;-3274.70;79.20;;;;;;5083941;28;20040;-61
2023/02/08 04:20:57;;;;;;;10.10;5.60;;;-3274.70;79.20;;;;;;5087189;28;20044;-60
2023/02/08 04:23:28;;;;;;;9.95;4.80;;;-3274.60;79.40;;;;;;5088062;28;20048;-61
2023/02/08 04:25:55;;;;;;;11.10;5.78;;;-3274.60;79.60;;;;;;5088113;28;20051;-68
2023/02/08 04:28:22;;;;;;;10.95;5.68;;;-3274.60;79.60;;;;;;5081513;28;20402;-68
2023/02/08 04:30:49;;;;;;;10.95;5.43;;;-3274.60;79.60;;;;;;5085548;28;20054;-62
2023/02/08 04:33:15;;;;;;;13.07;6.15;;;-3274.60;79.60;;;;;;5077560;28;20056;-61
2023/02/08 04:35:42;;;;;;;13.13;5.45;;;-3274.60;79.50;;;;;;5085972;28;20071;-62
2023/02/08 04:38:11;;;;;;;12.85;6.85;;;-3274.70;79.40;;;;;;5083970;28;20048;-61
2023/02/08 04:40:39;;;;;;;13.93;6.35;;;-3274.60;79.50;;;;;;5081833;28;20104;-62
2023/02/08 04:43:06;;;;;;;10.65;5.82;;;-3274.60;79.50;;;;;;5087694;28;20044;-62
2023/02/08 04:45:32;;;;;;;11.50;5.95;;;-3274.60;79.50;;;;;;5082115;28;20510;-74
2023/02/08 04:48:02;;;;;;;13.20;5.80;;;-3274.60;79.40;;;;;;5086528;28;20081;-72
2023/02/08 04:50:30;;;;;;;10.52;5.57;;;-3274.60;79.50;;;;;;5086848;28;20153;-68
2023/02/08 04:53:01;;;;;;;12.40;5.78;;;-3274.50;79.40;;;;;;5087285;28;20070;-68
2023/02/08 04:55:28;;;;;;;12.60;5.32;;;-3274.60;79.50;;;;;;5078581;28;20051;-72
2023/02/08 04:57:57;;;;;;;11.55;5.50;;;-3274.60;79.60;;;;;;5088378;28;20060;-71
2023/02/08 05:00:24;;;;;;;12.27;4.93;;;-3274.50;79.50;;;;;;5084993;28;20059;-68
2023/02/08 05:02:53;;;;;;;10.35;5.05;;;-3274.50;79.50;;;;;;5087977;28;20615;-67
2023/02/08 05:05:23;;;;;;;10.80;4.85;;;-3274.50;79.50;;;;;;5083474;28;20101;-67
2023/02/08 05:07:50;;;;;;;10.47;4.57;;;-3274.50;79.50;;;;;;5088580;28;20052;-72
2023/02/08 05:10:17;;;;;;;10.15;5.32;;;-3274.50;79.50;;;;;;5085565;28;20478;-72
2023/02/08 05:12:44;;;;;;;9.45;4.55;;;-3274.50;79.60;;;;;;5084892;28;20044;-71
2023/02/08 05:15:13;;;;;;;10.93;5.00;;;-3274.50;79.70;;;;;;5085290;28;20040;-71
2023/02/08 05:17:39;;;;;;;8.82;4.82;;;-3274.40;79.80;;;;;;5080929;28;20457;-71
2023/02/08 05:20:10;;;;;;;10.68;4.85;;;-3274.40;79.70;;;;;;5086957;28;20066;-71
2023/02/08 05:22:37;;;;;;;9.73;4.78;;;-3274.40;79.70;;;;;;5080343;28;20518;-74
2023/02/08 05:25:04;;;;;;;12.48;4.95;;;-3274.40;79.70;;;;;;5086944;28;20052;-72
2023/02/08 05:27:33;;;;;;;12.68;5.72;;;-3274.30;79.80;;;;;;5084723;28;20475;-67
2023/02/08 05:30:00;;;;;;;12.48;4.80;;;-3274.30;79.80;;;;;;5083216;28;20482;-69
2023/02/08 05:32:29;;;;;;;12.98;5.22;;;-3274.30;79.70;;;;;;5083955;28;20054;-72
2023/02/08 05:34:56;;;;;;;10.68;4.65;;;-3274.30;79.80;;;;;;5070170;28;20441;-72
2023/02/08 05:37:22;;;;;;;8.82;4.53;;;-3274.30;79.90;;;;;;5083950;28;20066;-70
2023/02/08 05:39:49;;;;;;;9.65;4.75;;;-3274.30;79.90;;;;;;5086105;28;20060;-72
2023/02/08 05:42:16;;;;;;;11.85;5.20;;;-3274.30;79.80;;;;;;5087733;28;20048;-63
2023/02/08 05:44:43;;;;;;;10.70;4.63;;;-3274.20;79.80;;;;;;5082136;28;20052;-61
2023/02/08 05:47:10;;;;;;;10.98;4.95;;;-3274.20;79.90;;;;;;5085683;28;20052;-67
2023/02/08 05:49:38;;;;;;;9.35;4.30;;;-3274.20;79.80;;;;;;5081264;28;20044;-69
2023/02/08 05:52:05;;;;;;;8.05;3.85;;;-3274.20;80.00;;;;;;5081208;28;20048;-61
2023/02/08 05:54:32;;;;;;;8.95;3.80;;;-3274.20;80.10;;;;;;5080935;28;20044;-61
2023/02/08 05:56:59;;;;;;;11.27;4.13;;;-3274.10;80.00;;;;;;5085434;28;20040;-71
2023/02/08 05:59:26;;;;;;;9.73;4.13;;;-3274.10;80.00;;;;;;5082382;28;20113;-72
2023/02/08 06:01:54;;;;;;;9.07;4.50;;;-3274.10;80.00;;;;;;5082009;28;20040;-73
2023/02/08 06:04:20;;;;;;;9.88;4.43;;;-3274.10;80.10;;;;;;5085738;28;20055;-72
2023/02/08 06:06:49;;;;;;;9.20;4.60;;;-3274.10;80.00;;;;;;5083720;28;20465;-66
2023/02/08 06:09:15;;;;;;;9.65;4.72;;;-3274.10;80.20;;;;;;5084084;28;20055;-66
2023/02/08 06:11:42;;;;;;;9.57;4.97;;;-3274.10;80.00;;;;;;5086190;28;20048;-61
2023/02/08 06:14:09;;;;;;;8.20;3.95;;;-3274.10;79.90;;;;;;5085995;28;20151;-62
2023/02/08 06:16:36;;;;;;;12.25;4.60;;;-3274.10;80.00;;;;;;5083789;28;20164;-69
2023/02/08 06:19:03;;;;;;;10.50;4.57;;;-3274.10;80.00;;;;;;5085225;28;20036;-69
2023/02/08 06:21:30;;;;;;;14.52;5.35;;;-3274.00;80.10;;;;;;5083623;28;20052;-64
2023/02/08 06:23:58;;;;;;;8.98;4.85;;;-3273.90;80.30;;;;;;5085524;28;20102;-65
2023/02/08 06:26:25;;;;;;;10.95;5.03;;;-3274.00;80.20;;;;;;5085287;28;20498;-62
2023/02/08 06:28:52;;;;;;;9.80;4.82;;;-3274.00;80.20;;;;;;5086223;28;20075;-61
2023/02/08 06:31:18;;;;;;;9.18;4.78;;;-3273.90;80.20;;;;;;5083671;28;20390;-66
2023/02/08 06:33:45;;;;;;;12.20;6.03;;;-3273.90;80.20;;;;;;5084660;28;20040;-65
2023/02/08 06:36:12;;;;;;;11.63;4.90;;;-3274.00;80.20;;;;;;5083284;28;20052;-72
2023/02/08 06:38:39;;;;;;;16.88;5.22;;;-3274.00;80.20;;;;;;5083186;28;20521;-72
2023/02/08 06:41:07;;;;;;;10.48;4.60;;;-3273.90;80.30;;;;;;5086179;28;20036;-61
2023/02/08 06:43:34;;;;;;;12.40;5.25;;;-3273.90;80.50;;;;;;5085244;28;20040;-60
2023/02/08 06:46:03;;;;;;;11.38;5.25;;;-3273.90;80.30;;;;;;5082085;28;20044;-62
2023/02/08 06:48:30;;;;;;;12.43;5.40;;;-3273.90;80.30;;;;;;5087392;28;20059;-60
2023/02/08 06:50:57;;;;;;;9.68;3.90;;;-3273.90;80.50;;;;;;5089837;28;20398;-61
2023/02/08 06:53:24;;;;;;;10.18;4.95;;;-3273.90;80.50;;;;;;5089637;28;20048;-60
2023/02/08 06:55:51;;;;;;;10.80;5.53;;;-3273.90;80.40;;;;;;5090177;28;20052;-65
2023/02/08 06:58:19;;;;;;;9.02;4.60;;;-3273.90;80.40;;;;;;5089024;28;20045;-65
2023/02/08 07:00:46;;;;;;;12.35;5.68;;;-3273.90;80.40;;;;;;5089436;28;20052;-60
2023/02/08 07:03:14;;;;;;;10.52;5.32;;;-3273.90;80.40;;;;;;5086887;28;20107;-62
2023/02/08 07:05:42;;;;;;;10.07;5.10;;;-3273.90;80.50;;;;;;5089138;28;20494;-71
2023/02/08 07:08:09;;;;;;;10.98;5.05;;;-3273.80;80.60;;;;;;5082714;28;20055;-71
2023/02/08 07:10:38;;;;;;;11.63;5.40;;;-3273.90;80.70;;;;;;5083672;28;20040;-61
2023/02/08 07:13:05;;;;;;;11.30;4.93;;;-3273.90;80.60;;;;;;5086823;28;20044;-62
2023/02/08 07:15:34;;;;;;;11.35;5.18;;;-3273.90;80.60;;;;;;5082633;28;20048;-61
2023/02/08 07:18:01;;;;;;;10.70;5.00;;;-3273.90;80.60;;;;;;5088237;28;20135;-62
2023/02/08 07:20:29;;;;;;;13.40;5.88;;;-3273.90;80.60;;;;;;5087234;28;20462;-71
2023/02/08 07:22:56;;;;;;;11.60;5.40;;;-3273.90;80.60;;;;;;5088927;28;20048;-73
2023/02/08 07:25:23;;;;;;;11.75;5.47;;;-3274.00;80.60;;;;;;5090406;28;20097;-69
2023/02/08 07:27:49;;;;;;;11.75;5.70;;;-3274.00;80.50;;;;;;5088559;28;20047;-69
2023/02/08 07:30:16;;;;;;;13.95;5.80;;;-3273.90;80.50;;;;;;5086977;28;20117;-68
2023/02/08 07:32:50;;;;;;;11.57;5.93;;;-3273.90;80.80;;;;;;5086249;28;20151;-68
2023/02/08 07:35:17;;;;;;;12.98;6.20;;;-3274.00;80.90;;;;;;5087475;28;20151;-68
2023/02/08 07:37:44;;;;;;;14.00;6.07;;;-3274.00;80.80;;;;;;5086392;28;20407;-68
2023/02/08 07:40:11;;;;;;;12.52;5.80;;;-3274.00;80.90;;;;;;5085320;28;20051;-68
2023/02/08 07:42:38;;;;;;;11.02;5.82;;;-3274.00;81.00;;;;;;5088957;28;20043;-61
2023/02/08 07:45:20;;;;;;;11.15;5.18;;;-3274.00;81.10;;;;;;5069493;28;20052;-62
2023/02/08 07:47:46;;;;;;;11.77;6.22;;;-3274.00;81.20;;;;;;5087959;28;20054;-61
2023/02/08 07:50:15;;;;;;;11.93;6.03;;;-3274.00;81.40;;;;;;5086995;28;20056;-61
2023/02/08 07:52:44;;;;;;;15.23;5.80;;;-3274.10;81.20;;;;;;5086994;28;20051;-62
2023/02/08 07:55:15;;;;;;;12.73;5.50;;;-3274.10;81.10;;;;;;5089762;28;20130;-62
2023/02/08 07:57:42;;;;;;;18.00;6.85;;;-3274.10;81.30;;;;;;5084339;28;20064;-62
2023/02/08 08:00:10;;;;;;;14.70;6.32;;;-3274.20;81.10;;;;;;5087116;28;20726;-62
2023/02/08 08:02:38;;;;;;;12.45;5.63;;;-3274.20;81.00;;;;;;5088616;28;20048;-65
2023/02/08 08:05:06;;;;;;;12.75;6.35;;;-3274.30;81.00;;;;;;5087164;28;20067;-65
2023/02/08 08:07:35;;;;;;;15.13;7.45;;;-3274.30;80.70;;;;;;5087894;28;20048;-60
2023/02/08 08:10:02;;;;;;;14.77;7.05;;;-3274.40;80.60;;;;;;5087668;28;20043;-61
2023/02/08 08:12:29;;;;;;;14.70;6.93;;;-3274.40;80.50;;;;;;5085368;28;20098;-59
2023/02/08 08:14:56;;;;;;;14.27;7.10;;;-3274.60;80.30;;;;;;5088313;28;20086;-61
2023/02/08 08:17:23;;;;;;;13.68;6.63;;;-3274.60;80.20;;;;;;5089962;28;20371;-73
2023/02/08 08:19:49;;;;;;;14.48;6.85;;;-3274.60;80.30;;;;;;5089826;28;20036;-72
2023/02/08 08:22:16;;;;;;;15.73;7.15;;;-3274.50;80.60;;;;;;5088741;28;20052;-65
2023/02/08 08:24:45;;;;;;;16.45;7.32;;;-3274.60;80.70;;;;;;5087163;28;20062;-66
2023/02/08 08:27:12;;;;;;;14.52;7.30;;;-3274.60;80.60;;;;;;5086951;28;20044;-65
2023/02/08 08:29:39;;;;;;;17.27;6.75;;;-3274.70;80.40;;;;;;5085224;28;20052;-66
2023/02/08 08:32:07;;;;;;;16.45;7.80;;;-3274.70;80.50;;;;;;5086609;28;20040;-61
2023/02/08 08:34:34;;;;;;;12.73;6.82;;;-3274.70;80.40;;;;;;5085242;28;20044;-62
2023/02/08 08:37:02;;;;;;;17.10;7.97;;;-3274.70;80.40;;;;;;5086019;28;20060;-72
2023/02/08 08:39:29;;;;;;;14.00;6.57;;;-3274.80;80.30;;;;;;5081553;28;20048;-71
2023/02/08 08:41:59;;;;;;;12.80;6.97;;;-3274.80;80.50;;;;;;5084662;28;20051;-72
2023/02/08 08:44:26;;;;;;;16.25;7.00;;;-3274.80;80.40;;;;;;5087809;28;20131;-72
2023/02/08 08:46:55;;;;;;;15.13;7.28;;;-3274.70;80.50;;;;;;5087996;28;20048;-62
2023/02/08 08:49:22;;;;;;;18.30;8.02;;;-3274.90;80.70;;;;;;5086914;28;20044;-61
2023/02/08 08:51:49;;;;;;;14.18;7.43;;;-3274.90;80.70;;;;;;5083199;28;20445;-60
2023/02/08 08:54:16;;;;;;;16.10;7.20;;;-3274.90;80.20;;;;;;5081485;28;20391;-60
2023/02/08 08:56:44;;;;;;;15.50;7.35;;;-3275.00;80.40;;;;;;5084673;28;20052;-62
2023/02/08 08:59:12;;;;;;;14.05;8.15;;;-3275.00;80.60;;;;;;5084191;28;20056;-60
2023/02/08 09:01:41;;;;;;;13.65;7.68;;;-3275.10;80.60;;;;;;5081551;28;20419;-61
2023/02/08 09:04:08;;;;;;;16.67;8.32;;;-3275.10;80.50;;;;;;5084991;28;20052;-61
2023/02/08 09:06:35;;;;;;;14.40;8.05;;;-3275.10;80.60;;;;;;5086390;28;20483;-61
2023/02/08 09:09:03;;;;;;;15.45;8.52;;;-3275.20;80.50;;;;;;5082572;28;20071;-61
2023/02/08 09:11:32;;;;;;;13.98;8.13;;;-3275.30;80.50;;;;;;5084222;28;20047;-61
2023/02/08 09:13:58;;;;;;;15.43;8.18;;;-3275.30;80.60;;;;;;5086039;28;20078;-61
2023/02/08 09:16:27;;;;;;;16.73;8.57;;;-3275.40;80.40;;;;;;5083996;28;20056;-61
2023/02/08 09:18:53;;;;;;;14.52;7.70;;;-3275.30;80.50;;;;;;5085969;28;20055;-61
2023/02/08 09:21:23;;;;;;;16.75;7.70;;;-3275.40;80.50;;;;;;5061174;28;20532;-64
2023/02/08 09:23:50;;;;;;;18.48;8.10;;;-3275.50;80.30;;;;;;5086743;28;20056;-62
2023/02/08 09:26:19;;;;;;;17.63;8.63;;;-3275.50;80.40;;;;;;5083944;28;20048;-61
2023/02/08 09:28:46;;;;;;;13.60;7.15;;;-3275.60;80.30;;;;;;5087885;28;20048;-61
2023/02/08 09:31:17;;;;;;;17.17;8.10;;;-3275.60;80.20;;;;;;5085354;28;20093;-63
2023/02/08 09:33:46;;;;;;;15.02;8.02;;;-3275.70;80.50;;;;;;5084974;28;20430;-62
2023/02/08 09:36:13;;;;;;;16.23;7.75;;;-3275.80;80.30;;;;;;5085297;28;20093;-59
2023/02/08 09:38:39;;;;;;;14.63;7.45;;;-3275.90;80.40;;;;;;5083970;28;20055;-61
2023/02/08 09:41:21;;;;;;;13.35;7.57;;;-3275.90;80.70;;;;;;5088690;28;20036;-61
2023/02/08 09:43:58;;;;;;;14.98;7.55;;;-3276.10;81.00;;;;;;5087329;28;20055;-60
2023/02/08 09:46:28;;;;;;;15.68;7.72;;;-3276.20;80.70;;;;;;5084648;28;20051;-60
2023/02/08 09:49:00;;;;;;;13.07;7.53;;;-3276.20;80.30;;;;;;5085137;28;20135;-61
2023/02/08 09:51:32;;;;;;;17.40;8.02;;;-3276.40;80.20;;;;;;5085242;28;20044;-60
2023/02/08 09:54:01;;;;;;;;;;;-3276.40;80.50;;;;;;5088298;28;20060;-61
2023/02/08 09:56:32;;;;;;;17.85;7.88;;;-3276.50;80.00;;;;;;5081296;28;19986;-61
2023/02/08 09:59:01;;;;;;;15.38;7.85;;;-3276.60;79.90;;;;;;5082078;28;20396;-62
2023/02/08 10:01:31;;;;;;;16.65;8.68;;;-3276.70;79.50;;;;;;5082535;28;20074;-62
2023/02/08 10:04:05;;;;;;;13.77;7.70;;;-3276.70;79.50;;;;;;5085170;28;20490;-61
2023/02/08 10:06:32;;;;;;;15.23;7.47;;;0.00;79.20;;;;;;5079179;28;20471;-61
2023/02/08 10:09:03;;;;;;;18.20;8.20;;;0.00;79.30;;;;;;5083654;28;20044;-62
2023/02/08 10:11:42;;;;;;;15.45;7.07;;;0.10;78.80;;;;;;5085423;28;20053;-61
2023/02/08 10:14:37;;;;;;;15.30;7.15;;;0.20;78.50;;;;;;5084745;28;20040;-61
2023/02/08 10:17:21;;;;;;;15.93;7.95;;;0.30;78.30;;;;;;5083230;28;20217;-61
2023/02/08 10:20:02;;;;;;;14.73;7.22;;;0.30;78.30;;;;;;5086207;28;20112;-60
2023/02/08 10:22:41;;;;;;;16.75;7.30;;;0.50;77.40;;;;;;5082347;28;20044;-62
2023/02/08 10:25:30;;;;;;;17.80;8.30;;;0.60;77.10;;;;;;5085356;28;20414;-61
2023/02/08 10:28:16;;;;;;;15.07;7.80;;;0.70;77.00;;;;;;5083554;28;20060;-60
2023/02/08 10:30:51;;;;;;;16.30;8.18;;;0.70;77.30;;;;;;5080995;28;20055;-61
2023/02/08 10:33:22;;;;;;;15.23;7.97;;;0.80;77.00;;;;;;5080467;28;20051;-61
2023/02/08 10:35:51;;;;;;;17.67;7.65;;;0.90;76.70;;;;;;5086184;28;20048;-61
2023/02/08 10:38:25;;;;;;;16.27;8.10;;;0.90;77.10;;;;;;5080586;28;20070;-61
2023/02/08 10:40:55;;;;;;;16.02;7.72;;;1.00;77.00;;;;;;5083675;28;20048;-61
2023/02/08 10:43:32;;;;;;;14.90;7.40;;;1.10;76.20;;;;;;5085935;28;20515;-61
2023/02/08 10:46:07;;;;;;;13.90;6.93;;;1.20;75.70;;;;;;5085238;28;20079;-61
2023/02/08 10:48:45;;;;;;;13.10;6.53;;;1.20;75.40;;;;;;5081398;28;20044;-61
2023/02/08 10:51:17;;;;;;;14.80;7.57;;;1.30;75.00;;;;;;5084344;28;20051;-61
2023/02/08 10:53:45;;;;;;;15.18;7.47;;;1.30;75.00;;;;;;5085135;28;20135;-62
2023/02/08 10:56:35;;;;;;;14.57;7.18;;;1.40;74.80;;;;;;5086730;28;20040;-59
2023/02/08 10:59:07;;;;;;;14.23;6.95;;;1.40;74.70;;;;;;5083899;28;20078;-60
2023/02/08 11:01:34;;;;;;;15.98;7.55;;;1.40;73.90;;;;;;5080684;28;20048;-61
2023/02/08 11:04:02;;;;;;;15.02;7.68;;;1.50;73.10;;;;;;5085643;28;20471;-59
2023/02/08 11:06:31;;;;;;;15.73;7.85;;;1.50;73.40;;;;;;5076523;28;20040;-61
2023/02/08 11:08:58;;;;;;;13.30;6.90;;;1.60;73.20;;;;;;5083350;28;20040;-61
2023/02/08 11:11:28;;;;;;;12.45;5.88;;;1.60;72.90;;;;;;5082780;28;20505;-61
2023/02/08 11:14:07;;;;;;;13.88;6.13;;;1.60;72.20;;;;;;5083283;28;20144;-61
2023/02/08 11:16:34;;;;;;;13.70;7.00;;;1.70;70.60;;;;;;5082402;28;20047;-63
2023/02/08 11:19:04;;;;;;;12.48;6.57;;;1.70;70.90;;;;;;5083994;28;20052;-62
2023/02/08 11:21:34;;;;;;;11.90;6.00;;;1.70;71.10;;;;;;5086061;28;20059;-61
2023/02/08 11:24:05;;;;;;;13.45;6.50;;;1.90;68.90;;;;;;5084594;28;20048;-61
2023/02/08 11:26:33;;;;;;;;;;;1.90;69.00;;;;;;5087064;28;20115;-62
2023/02/08 11:29:02;;;;;;;11.10;5.30;;;1.90;68.50;;;;;;5085020;28;20282;-62
2023/02/08 11:31:30;;;;;;;12.38;5.90;;;2.00;68.30;;;;;;5084892;28;20072;-60
2023/02/08 11:34:02;;;;;;;11.77;5.60;;;2.00;68.40;;;;;;5084698;28;20044;-61
2023/02/08 11:36:30;;;;;;;11.27;5.63;;;2.00;67.90;;;;;;5083446;28;20048;-62
2023/02/08 11:39:01;;;;;;;10.77;5.35;;;2.10;66.80;;;;;;5088031;28;20474;-62
2023/02/08 11:41:29;;;;;;;10.40;4.97;;;2.00;66.80;;;;;;5089325;28;20043;-61
2023/02/08 11:44:00;;;;;;;9.50;4.85;;;2.10;66.90;;;;;;5085855;28;20056;-62
2023/02/08 11:46:32;;;;;;;10.45;5.00;;;2.00;67.30;;;;;;5085149;28;20112;-62
2023/02/08 11:48:58;;;;;;;9.93;4.88;;;2.10;66.40;;;;;;5090710;28;20044;-61
2023/02/08 11:51:29;;;;;;;10.10;4.70;;;2.10;67.20;;;;;;5088965;28;20048;-61
2023/02/08 11:53:56;;;;;;;13.43;5.50;;;2.10;65.50;;;;;;5086903;28;20095;-61
2023/02/08 11:56:27;;;;;;;9.45;4.82;;;2.20;65.40;;;;;;5086563;28;20139;-62
2023/02/08 11:59:02;;;;;;;;;;;2.30;63.40;;;;;;5088303;28;20044;-63
2023/02/08 12:01:31;;;;;;;10.45;4.38;;;2.20;63.90;;;;;;5082308;28;19927;-62
2023/02/08 12:04:01;;;;;;;9.20;4.75;;;2.20;65.40;;;;;;5085700;28;20455;-62
2023/02/08 12:07:06;;;;;;;10.73;4.82;;;2.20;65.50;;;;;;5089408;28;20063;-62
2023/02/08 12:09:59;;;;;;;10.52;4.72;;;2.10;66.30;;;;;;5084975;28;20044;-61
2023/02/08 12:12:38;;;;;;;12.25;5.32;;;2.10;66.90;;;;;;5082249;28;20054;-61
2023/02/08 12:15:11;;;;;;;11.70;5.28;;;2.20;67.20;;;;;;5086351;28;20044;-62
2023/02/08 12:18:01;;;;;;;11.25;5.43;;;2.20;67.50;;;;;;5065580;28;20419;-61
2023/02/08 12:20:40;;;;;;;9.23;4.60;;;2.20;65.60;;;;;;5081783;28;20047;-62
2023/02/08 12:23:36;;;;;;;8.73;4.68;;;2.20;64.60;;;;;;5088238;28;20044;-63
2023/02/08 12:26:15;;;;;;;11.45;4.82;;;2.20;65.20;;;;;;5066199;28;20055;-63
2023/02/08 12:29:12;;;;;;;11.40;5.35;;;2.20;65.70;;;;;;5082780;28;20532;-63
2023/02/08 12:31:51;;;;;;;10.73;5.38;;;2.20;66.40;;;;;;5082572;28;20044;-63
2023/02/08 12:34:27;;;;;;;10.15;5.03;;;2.20;66.70;;;;;;5086873;28;20050;-62
2023/02/08 12:43:26;;;;;;;10.20;5.10;;;2.20;65.30;;;;;;4998109;28;20064;-63